createdAt,value
2022-09-28T00:00:05.645Z,422.15
2022-09-28T00:03:05.958Z,411.10
2022-09-28T00:05:37.568Z,420.70
2022-09-28T00:08:08.758Z,417.42
2022-09-28T00:10:43.434Z,413.40
2022-09-28T00:13:14.607Z,431.05
2022-09-28T00:15:46.052Z,431.53
2022-09-28T00:18:19.917Z,426.08
2022-09-28T00:20:51.786Z,433.40
2022-09-28T00:23:22.957Z,425.95
2022-09-28T00:25:54.389Z,417.87
2022-09-28T00:28:25.696Z,427.73
2022-09-28T00:30:59.231Z,432.10
2022-09-28T00:33:33.024Z,435.83
2022-09-28T00:36:04.952Z,437.88
2022-09-28T00:38:36.084Z,406.35
2022-09-28T00:41:08.301Z,411.10
2022-09-28T00:43:39.418Z,427.25
2022-09-28T00:46:17.459Z,420.08
2022-09-28T00:48:57.251Z,427.58
2022-09-28T00:51:29.933Z,404.42
2022-09-28T00:54:02.545Z,418.65
2022-09-28T00:56:36.919Z,422.77
2022-09-28T00:59:08.468Z,423.60
2022-09-28T01:01:40.479Z,408.75
2022-09-28T01:04:14.552Z,428.38
2022-09-28T01:06:48.661Z,412.70
2022-09-28T01:09:21.147Z,417.63
2022-09-28T01:11:52.613Z,434.52
2022-09-28T01:14:25.875Z,422.63
2022-09-28T01:17:05.197Z,423.70
2022-09-28T01:20:20.856Z,427.42
2022-09-28T01:23:27.940Z,417.67
2022-09-28T01:26:06.341Z,408.08
2022-09-28T01:28:40.683Z,413.35
2022-09-28T01:31:15.953Z,423.02
2022-09-28T01:33:50.425Z,423.50
2022-09-28T01:36:25.993Z,407.83
2022-09-28T01:39:02.789Z,407.27
2022-09-28T01:41:36.757Z,420.98
2022-09-28T01:44:14.371Z,411.42
2022-09-28T01:46:49.192Z,424.20
2022-09-28T01:49:24.449Z,409.70
2022-09-28T01:52:00.680Z,403.85
2022-09-28T01:54:36.044Z,414.25
2022-09-28T01:57:13.903Z,414.90
2022-09-28T01:59:56.662Z,407.10
2022-09-28T02:02:35.158Z,420.15
2022-09-28T02:05:11.287Z,404.58
2022-09-28T02:07:46.049Z,418.67
2022-09-28T02:10:22.254Z,412.05
2022-09-28T02:12:56.982Z,398.77
2022-09-28T02:15:36.858Z,404.35
2022-09-28T02:18:08.637Z,409.60
2022-09-28T02:20:44.929Z,404.98
2022-09-28T02:23:17.658Z,414.13
2022-09-28T02:25:53.469Z,403.13
2022-09-28T02:28:25.510Z,411.67
2022-09-28T02:30:59.602Z,409.17
2022-09-28T02:33:36.795Z,402.73
2022-09-28T02:36:09.461Z,402.80
2022-09-28T02:38:42.783Z,398.08
2022-09-28T02:41:26.444Z,408.58
2022-09-28T02:44:06.084Z,387.80
2022-09-28T02:46:51.328Z,398.58
2022-09-28T02:49:35.506Z,377.13
2022-09-28T02:52:27.380Z,398.83
2022-09-28T02:55:31.154Z,385.10
2022-09-28T02:58:20.547Z,386.50
2022-09-28T03:04:44.881Z,386.45
2022-09-28T03:07:28.509Z,375.40
2022-09-28T03:10:05.669Z,377.58
2022-09-28T03:12:37.601Z,375.83
2022-09-28T03:15:16.651Z,373.15
2022-09-28T03:17:48.177Z,366.10
2022-09-28T03:20:22.483Z,381.73
2022-09-28T03:23:12.753Z,373.63
2022-09-28T03:25:45.210Z,364.45
2022-09-28T03:28:17.375Z,353.13
2022-09-28T03:30:48.530Z,354.10
2022-09-28T03:33:20.212Z,359.87
2022-09-28T03:35:54.522Z,357.50
2022-09-28T03:38:25.955Z,364.05
2022-09-28T03:40:58.017Z,348.67
2022-09-28T03:43:30.885Z,366.30
2022-09-28T03:46:05.216Z,364.10
2022-09-28T03:48:43.207Z,355.35
2022-09-28T03:51:17.871Z,349.02
2022-09-28T03:53:49.294Z,351.38
2022-09-28T03:56:20.372Z,348.85
2022-09-28T03:58:51.818Z,350.10
2022-09-28T04:01:22.984Z,354.55
2022-09-28T04:03:57.719Z,357.27
2022-09-28T04:06:31.854Z,332.60
2022-09-28T04:09:03.389Z,343.92
2022-09-28T04:11:43.072Z,353.73
2022-09-28T04:14:25.174Z,357.35
2022-09-28T04:16:57.169Z,352.92
2022-09-28T04:19:30.177Z,358.63
2022-09-28T04:22:05.074Z,334.85
2022-09-28T04:24:36.655Z,347.45
2022-09-28T04:27:20.403Z,347.20
2022-09-28T04:29:53.289Z,350.92
2022-09-28T04:32:24.460Z,345.48
2022-09-28T04:34:56.073Z,334.37
2022-09-28T04:37:31.371Z,346.88
2022-09-28T04:40:03.288Z,345.88
2022-09-28T04:42:35.150Z,342.20
2022-09-28T04:45:07.625Z,338.07
2022-09-28T04:47:42.175Z,341.50
2022-09-28T04:50:24.709Z,343.35
2022-09-28T04:53:21.671Z,343.40
2022-09-28T04:56:01.306Z,335.13
2022-09-28T04:58:33.613Z,331.23
2022-09-28T05:01:07.027Z,333.83
2022-09-28T05:04:01.060Z,332.77
2022-09-28T05:06:42.159Z,326.25
2022-09-28T05:09:16.103Z,331.73
2022-09-28T05:11:47.670Z,330.50
2022-09-28T05:14:22.096Z,339.95
2022-09-28T05:16:53.545Z,338.85
2022-09-28T05:19:30.686Z,336.60
2022-09-28T05:22:11.524Z,332.15
2022-09-28T05:24:49.189Z,336.95
2022-09-28T05:27:20.947Z,331.35
2022-09-28T05:30:02.489Z,327.90
2022-09-28T05:33:10.189Z,341.80
2022-09-28T05:35:55.099Z,336.40
2022-09-28T05:38:28.816Z,326.30
2022-09-28T05:41:06.409Z,339.98
2022-09-28T05:43:38.670Z,345.08
2022-09-28T05:46:10.093Z,344.98
2022-09-28T05:48:44.862Z,342.45
2022-09-28T05:51:16.145Z,344.30
2022-09-28T05:53:47.789Z,353.30
2022-09-28T05:56:23.096Z,347.67
2022-09-28T05:58:56.225Z,355.33
2022-09-28T06:01:28.615Z,346.70
2022-09-28T06:04:02.355Z,349.67
2022-09-28T06:06:33.683Z,356.20
2022-09-28T06:09:05.356Z,356.17
2022-09-28T06:11:39.158Z,357.05
2022-09-28T06:14:17.451Z,361.23
2022-09-28T06:16:48.678Z,364.55
2022-09-28T06:19:20.171Z,370.30
2022-09-28T06:22:17.096Z,360.65
2022-09-28T06:25:02.145Z,362.23
2022-09-28T06:27:36.253Z,355.20
2022-09-28T06:30:08.844Z,360.92
2022-09-28T06:32:39.930Z,372.98
2022-09-28T06:35:11.848Z,372.60
2022-09-28T06:37:44.246Z,369.83
2022-09-28T06:40:15.966Z,368.67
2022-09-28T06:42:58.865Z,390.95
2022-09-28T06:45:54.477Z,396.65
2022-09-28T06:49:04.842Z,398.40
2022-09-28T06:51:55.347Z,408.38
2022-09-28T06:54:38.361Z,413.95
2022-09-28T06:57:26.402Z,411.38
2022-09-28T07:00:00.146Z,429.52
2022-09-28T07:02:31.669Z,410.52
2022-09-28T07:05:37.945Z,418.48
2022-09-28T07:08:49.675Z,401.77
2022-09-28T07:11:44.481Z,412.30
2022-09-28T07:14:45.482Z,416.42
2022-09-28T07:17:18.972Z,424.73
2022-09-28T07:19:53.214Z,427.25
2022-09-28T07:22:39.223Z,426.52
2022-09-28T07:25:14.412Z,426.50
2022-09-28T07:27:51.570Z,433.60
2022-09-28T07:30:49.722Z,434.23
2022-09-28T07:33:39.312Z,442.00
2022-09-28T07:36:27.413Z,436.60
2022-09-28T07:38:58.537Z,442.42
2022-09-28T07:41:32.792Z,449.40
2022-09-28T07:44:08.323Z,437.05
2022-09-28T07:46:41.253Z,435.88
2022-09-28T07:49:26.935Z,439.15
2022-09-28T07:52:18.684Z,442.13
2022-09-28T07:55:12.797Z,439.48
2022-09-28T07:58:03.412Z,439.98
2022-09-28T08:00:54.365Z,453.10
2022-09-28T08:03:25.932Z,448.13
2022-09-28T08:06:04.350Z,446.35
2022-09-28T08:08:37.281Z,441.58
2022-09-28T08:11:10.711Z,450.48
2022-09-28T08:14:02.454Z,449.88
2022-09-28T08:16:33.626Z,460.88
2022-09-28T08:19:15.539Z,448.40
2022-09-28T08:21:46.919Z,448.50
2022-09-28T08:24:21.152Z,447.05
2022-09-28T08:26:55.744Z,445.80
2022-09-28T08:29:30.478Z,450.52
2022-09-28T08:32:16.825Z,457.38
2022-09-28T08:35:20.200Z,434.38
2022-09-28T08:38:14.084Z,420.10
2022-09-28T08:41:09.950Z,436.00
2022-09-28T08:44:24.346Z,438.08
2022-09-28T08:47:33.607Z,440.60
2022-09-28T08:50:32.301Z,446.45
2022-09-28T08:53:42.710Z,446.15
2022-09-28T08:56:27.418Z,444.08
2022-09-28T08:59:04.695Z,453.40
2022-09-28T09:01:43.362Z,460.42
2022-09-28T09:04:19.764Z,456.90
2022-09-28T09:07:55.816Z,462.65
2022-09-28T09:10:51.669Z,468.83
2022-09-28T09:14:04.432Z,452.15
2022-09-28T09:16:45.683Z,462.23
2022-09-28T09:19:55.332Z,468.27
2022-09-28T09:22:51.968Z,462.05
2022-09-28T09:25:28.661Z,471.50
2022-09-28T09:28:30.673Z,476.70
2022-09-28T09:31:17.680Z,463.65
2022-09-28T09:34:20.294Z,469.27
2022-09-28T09:37:34.626Z,465.08
2022-09-28T09:40:38.758Z,445.55
2022-09-28T09:43:56.170Z,463.55
2022-09-28T09:46:52.689Z,453.45
2022-09-28T09:49:41.770Z,453.67
2022-09-28T09:52:18.444Z,452.95
2022-09-28T09:54:54.232Z,467.23
2022-09-28T09:57:47.355Z,447.15
2022-09-28T10:00:42.884Z,467.73
2022-09-28T10:03:26.878Z,466.83
2022-09-28T10:06:06.498Z,489.63
2022-09-28T10:08:43.724Z,489.50
2022-09-28T10:11:21.784Z,468.00
2022-09-28T10:13:58.514Z,475.58
2022-09-28T10:17:00.678Z,488.80
2022-09-28T10:19:50.595Z,493.95
2022-09-28T10:22:47.387Z,474.35
2022-09-28T10:25:22.912Z,486.83
2022-09-28T10:27:55.515Z,493.85
2022-09-28T10:30:29.281Z,494.33
2022-09-28T10:33:03.025Z,496.70
2022-09-28T10:35:47.952Z,503.23
2022-09-28T10:38:22.498Z,503.88
2022-09-28T10:41:03.589Z,510.27
2022-09-28T10:44:06.493Z,515.35
2022-09-28T10:46:44.233Z,508.38
2022-09-28T10:49:24.276Z,512.90
2022-09-28T10:52:00.494Z,519.30
2022-09-28T10:54:37.630Z,524.70
2022-09-28T10:57:30.889Z,519.40
2022-09-28T11:00:09.324Z,523.65
2022-09-28T11:02:53.839Z,536.25
2022-09-28T11:05:31.163Z,539.40
2022-09-28T11:08:09.406Z,547.83
2022-09-28T11:10:50.149Z,525.30
2022-09-28T11:13:21.598Z,526.90
2022-09-28T11:16:03.074Z,533.63
2022-09-28T11:18:38.997Z,536.28
2022-09-28T11:21:19.171Z,532.25
2022-09-28T11:24:10.375Z,516.90
2022-09-28T11:26:48.614Z,522.05
2022-09-28T11:29:27.442Z,528.95
2022-09-28T11:32:44.451Z,527.22
2022-09-28T11:35:28.487Z,531.80
2022-09-28T11:38:27.372Z,533.08
2022-09-28T11:41:40.438Z,528.70
2022-09-28T11:47:06.148Z,507.73
2022-09-28T11:49:41.849Z,520.20
2022-09-28T11:52:21.618Z,526.47
2022-09-28T11:54:59.317Z,539.17
2022-09-28T11:57:33.853Z,543.42
2022-09-28T12:00:08.369Z,541.33
2022-09-28T12:02:52.608Z,542.05
2022-09-28T12:05:29.692Z,545.60
2022-09-28T12:08:07.178Z,548.20
2022-09-28T12:11:17.216Z,542.35
2022-09-28T12:14:13.402Z,551.00
2022-09-28T12:17:05.829Z,547.92
2022-09-28T12:19:45.566Z,529.17
2022-09-28T12:22:24.345Z,545.67
2022-09-28T12:25:00.270Z,542.30
2022-09-28T12:27:40.187Z,532.90
2022-09-28T12:30:19.484Z,529.00
2022-09-28T12:32:57.033Z,533.88
2022-09-28T12:35:39.171Z,533.53
2022-09-28T12:38:28.767Z,529.35
2022-09-28T12:41:05.689Z,539.53
2022-09-28T12:43:56.510Z,538.15
2022-09-28T12:46:50.741Z,535.00
2022-09-28T12:50:27.172Z,538.38
2022-09-28T12:55:58.032Z,542.58
2022-09-28T12:58:48.590Z,538.53
2022-09-28T13:01:45.639Z,542.97
2022-09-28T13:04:47.465Z,542.08
2022-09-28T13:07:25.150Z,544.95
2022-09-28T13:10:05.433Z,546.70
2022-09-28T13:12:51.161Z,539.97
2022-09-28T13:15:46.608Z,544.20
2022-09-28T13:18:27.415Z,538.92
2022-09-28T13:21:18.811Z,537.83
2022-09-28T13:23:51.623Z,537.50
2022-09-28T13:26:27.297Z,550.92
2022-09-28T13:29:03.757Z,548.00
2022-09-28T13:31:41.131Z,550.15
2022-09-28T13:34:22.610Z,543.45
2022-09-28T13:37:21.786Z,547.15
2022-09-28T13:39:59.101Z,533.55
2022-09-28T13:43:05.122Z,543.50
2022-09-28T13:45:56.998Z,538.80
2022-09-28T13:48:48.718Z,543.38
2022-09-28T13:51:43.602Z,533.03
2022-09-28T13:54:31.846Z,547.28
2022-09-28T13:57:15.773Z,540.63
2022-09-28T13:59:56.328Z,538.70
2022-09-28T14:02:38.741Z,535.65
2022-09-28T14:05:51.798Z,552.78
2022-09-28T14:08:34.912Z,543.30
2022-09-28T14:11:28.236Z,546.10
2022-09-28T14:14:04.945Z,545.08
2022-09-28T14:16:37.762Z,566.58
2022-09-28T14:19:12.089Z,555.70
2022-09-28T14:22:19.787Z,551.72
2022-09-28T14:25:11.990Z,534.70
2022-09-28T14:27:56.312Z,552.63
2022-09-28T14:30:29.403Z,534.47
2022-09-28T14:33:03.033Z,535.03
2022-09-28T14:35:41.866Z,537.55
2022-09-28T14:38:34.652Z,534.35
2022-09-28T14:41:13.058Z,537.20
2022-09-28T14:44:01.125Z,536.90
2022-09-28T14:46:44.908Z,531.03
2022-09-28T14:49:47.713Z,527.00
2022-09-28T14:52:37.597Z,523.95
2022-09-28T14:55:17.102Z,531.05
2022-09-28T14:57:55.924Z,522.90
2022-09-28T15:00:32.242Z,530.47
2022-09-28T15:03:12.020Z,527.65
2022-09-28T15:05:47.264Z,529.05
2022-09-28T15:08:18.987Z,522.78
2022-09-28T15:10:54.569Z,529.80
2022-09-28T15:13:28.883Z,522.70
2022-09-28T15:16:06.513Z,520.67
2022-09-28T15:19:17.633Z,524.17
2022-09-28T15:21:50.894Z,514.28
2022-09-28T15:24:34.464Z,502.85
2022-09-28T15:27:19.304Z,520.53
2022-09-28T15:30:02.615Z,522.25
2022-09-28T15:32:35.032Z,514.35
2022-09-28T15:35:14.620Z,525.07
2022-09-28T15:37:52.782Z,523.45
2022-09-28T15:40:33.413Z,512.13
2022-09-28T15:43:24.954Z,519.65
2022-09-28T15:46:02.787Z,523.90
2022-09-28T15:48:40.851Z,532.88
2022-09-28T15:51:13.838Z,514.78
2022-09-28T15:53:51.869Z,524.58
2022-09-28T15:56:23.253Z,514.35
2022-09-28T15:59:27.703Z,508.80
2022-09-28T16:02:15.199Z,508.40
2022-09-28T16:04:53.182Z,512.22
2022-09-28T16:07:31.404Z,510.70
2022-09-28T16:10:05.512Z,503.38
2022-09-28T16:12:46.371Z,506.60
2022-09-28T16:15:23.971Z,507.95
2022-09-28T16:18:00.781Z,501.90
2022-09-28T16:20:35.747Z,503.45
2022-09-28T16:23:20.922Z,512.42
2022-09-28T16:25:55.508Z,496.45
2022-09-28T16:28:49.056Z,496.95
2022-09-28T16:31:37.326Z,503.38
2022-09-28T16:34:20.680Z,498.55
2022-09-28T16:36:52.785Z,488.88
2022-09-28T16:39:25.303Z,487.02
2022-09-28T16:42:03.349Z,482.85
2022-09-28T16:44:35.196Z,476.10
2022-09-28T16:47:09.900Z,471.25
2022-09-28T16:49:42.859Z,461.83
2022-09-28T16:52:35.440Z,463.77
2022-09-28T16:55:39.325Z,476.48
2022-09-28T16:58:08.316Z,458.13
2022-09-28T17:00:39.897Z,471.10
2022-09-28T17:03:19.016Z,461.63
2022-09-28T17:05:51.193Z,463.10
2022-09-28T17:11:13.809Z,448.90
2022-09-28T17:13:48.010Z,458.23
2022-09-28T17:16:28.177Z,465.75
2022-09-28T17:19:22.645Z,469.27
2022-09-28T17:21:54.844Z,471.77
2022-09-28T17:24:26.449Z,469.73
2022-09-28T17:26:58.239Z,482.07
2022-09-28T17:29:30.628Z,488.15
2022-09-28T17:32:02.600Z,500.48
2022-09-28T17:34:37.009Z,490.73
2022-09-28T17:37:08.486Z,490.85
2022-09-28T17:39:40.202Z,499.38
2022-09-28T17:42:12.254Z,491.10
2022-09-28T17:44:44.395Z,504.23
2022-09-28T17:47:16.563Z,496.23
2022-09-28T17:49:51.683Z,499.15
2022-09-28T17:52:23.264Z,492.42
2022-09-28T17:54:55.527Z,492.02
2022-09-28T17:57:27.411Z,491.48
2022-09-28T17:59:59.710Z,491.40
2022-09-28T18:02:32.272Z,485.42
2022-09-28T18:05:07.399Z,496.52
2022-09-28T18:07:50.120Z,482.52
2022-09-28T18:10:24.491Z,490.48
2022-09-28T18:12:56.342Z,482.48
2022-09-28T18:17:59.871Z,455.15
2022-09-28T18:20:34.593Z,471.33
2022-09-28T18:23:06.413Z,470.20
2022-09-28T18:25:41.957Z,486.00
2022-09-28T18:28:13.803Z,478.52
2022-09-28T18:30:47.356Z,484.73
2022-09-28T18:33:18.983Z,477.85
2022-09-28T18:35:57.627Z,485.50
2022-09-28T18:38:29.257Z,480.13
2022-09-28T18:41:01.052Z,480.75
2022-09-28T18:43:35.726Z,471.20
2022-09-28T18:46:12.890Z,483.55
2022-09-28T18:48:45.127Z,477.55
2022-09-28T18:51:21.047Z,472.90
2022-09-28T18:53:53.259Z,470.98
2022-09-28T18:56:27.100Z,485.35
2022-09-28T18:59:00.802Z,478.05
2022-09-28T19:01:33.009Z,468.23
2022-09-28T19:04:07.189Z,478.48
2022-09-28T19:06:45.083Z,484.40
2022-09-28T19:09:16.639Z,461.83
2022-09-28T19:11:48.753Z,478.98
2022-09-28T19:14:20.505Z,486.77
2022-09-28T19:16:52.527Z,489.50
2022-09-28T19:19:24.540Z,503.25
2022-09-28T19:21:59.044Z,502.75
2022-09-28T19:24:30.823Z,511.52
2022-09-28T19:27:02.481Z,513.10
2022-09-28T19:29:34.060Z,492.17
2022-09-28T19:32:06.250Z,496.02
2022-09-28T19:34:38.429Z,502.23
2022-09-28T19:37:12.447Z,503.30
2022-09-28T19:39:43.747Z,498.35
2022-09-28T19:42:15.285Z,494.60
2022-09-28T19:44:46.768Z,482.48
2022-09-28T19:47:18.916Z,499.63
2022-09-28T19:49:50.045Z,493.60
2022-09-28T19:52:24.335Z,485.02
2022-09-28T19:54:57.544Z,478.30
2022-09-28T19:57:30.674Z,488.45
2022-09-28T20:00:03.863Z,495.00
2022-09-28T20:02:39.034Z,481.45
2022-09-28T20:05:10.875Z,483.73
2022-09-28T20:07:46.334Z,471.02
2022-09-28T20:10:17.712Z,477.27
2022-09-28T20:12:49.179Z,469.40
2022-09-28T20:15:21.716Z,479.98
2022-09-28T20:17:54.238Z,470.88
2022-09-28T20:20:25.996Z,484.33
2022-09-28T20:23:00.227Z,490.67
2022-09-28T20:25:31.359Z,471.42
2022-09-28T20:28:02.824Z,478.83
2022-09-28T20:30:34.418Z,484.08
2022-09-28T20:33:07.392Z,482.23
2022-09-28T20:35:40.637Z,480.33
2022-09-28T20:38:14.727Z,479.90
2022-09-28T20:40:46.884Z,467.10
2022-09-28T20:43:19.095Z,473.92
2022-09-28T20:45:50.726Z,471.58
2022-09-28T20:48:22.704Z,465.25
2022-09-28T20:51:02.980Z,461.58
2022-09-28T20:53:37.472Z,467.23
2022-09-28T20:56:09.919Z,477.05
2022-09-28T20:58:42.497Z,474.20
2022-09-28T21:01:16.398Z,467.15
2022-09-28T21:03:50.740Z,479.05
2022-09-28T21:06:23.126Z,478.85
2022-09-28T21:08:57.337Z,466.80
2022-09-28T21:11:30.324Z,469.95
2022-09-28T21:14:03.375Z,475.05
2022-09-28T21:16:35.913Z,479.70
2022-09-28T21:19:07.706Z,466.73
2022-09-28T21:21:38.817Z,460.50
2022-09-28T21:24:13.380Z,471.03
2022-09-28T21:26:44.455Z,476.45
2022-09-28T21:29:17.689Z,464.88
2022-09-28T21:31:50.107Z,465.23
2022-09-28T21:34:24.445Z,468.48
2022-09-28T21:36:55.876Z,476.17
2022-09-28T21:39:29.919Z,474.87
2022-09-28T21:42:01.114Z,482.17
2022-09-28T21:44:32.550Z,479.67
2022-09-28T21:47:03.737Z,468.92
2022-09-28T21:52:06.842Z,464.80
2022-09-28T21:54:42.711Z,467.60
2022-09-28T21:57:13.995Z,464.27
2022-09-28T21:59:45.393Z,469.50
2022-09-28T22:02:16.653Z,474.83
2022-09-28T22:04:48.620Z,468.45
2022-09-28T22:07:19.797Z,474.70
2022-09-28T22:09:53.804Z,470.93
2022-09-28T22:12:24.947Z,467.33
2022-09-28T22:14:56.481Z,478.30
2022-09-28T22:17:28.207Z,478.40
2022-09-28T22:19:59.762Z,485.02
2022-09-28T22:22:30.871Z,458.30
2022-09-28T22:25:04.862Z,483.92
2022-09-28T22:27:36.094Z,473.23
2022-09-28T22:30:08.600Z,480.73
2022-09-28T22:32:39.688Z,463.38
2022-09-28T22:35:12.686Z,479.05
2022-09-28T22:37:43.900Z,483.60
2022-09-28T22:40:18.383Z,472.67
2022-09-28T22:42:49.712Z,485.90
2022-09-28T22:45:21.068Z,472.52
2022-09-28T22:47:52.225Z,473.25
2022-09-28T22:50:23.699Z,479.93
2022-09-28T22:52:57.462Z,458.73
2022-09-28T22:55:33.600Z,478.13
2022-09-28T22:58:05.166Z,466.52
2022-09-28T23:00:36.720Z,465.40
2022-09-28T23:03:07.895Z,475.48
2022-09-28T23:05:39.582Z,463.60
2022-09-28T23:08:10.843Z,473.30
2022-09-28T23:10:45.128Z,480.08
2022-09-28T23:13:16.263Z,457.98
2022-09-28T23:15:56.880Z,464.67
2022-09-28T23:18:30.217Z,463.45
2022-09-28T23:21:03.389Z,452.70
2022-09-28T23:23:35.465Z,462.90
2022-09-28T23:28:47.534Z,448.63
2022-09-28T23:31:20.982Z,441.10
2022-09-28T23:33:52.366Z,450.55
2022-09-28T23:36:23.829Z,472.67
2022-09-28T23:38:54.887Z,467.92
2022-09-28T23:41:28.909Z,450.33
2022-09-28T23:44:00.293Z,450.95
2022-09-28T23:46:32.027Z,473.20
2022-09-28T23:49:03.193Z,459.13
2022-09-28T23:51:34.564Z,459.57
2022-09-28T23:54:06.884Z,466.90
2022-09-28T23:56:41.002Z,460.83
2022-09-28T23:59:12.146Z,452.67
